Miles City, MT

12:59 AM MDT on October 26, 2014 (GMT -0600)
Wiley | Change Station
CLOSE
Current Station
Airport
Location: Miles City,
Elevation: 2628 ft
Nearby Weather Stations

Elev 2628 ft 46.43 °N, 105.88 °W | Updated 6 minutes ago

Clear
Clear
54 °F
Feels Like 54 °F
N
8
Wind Variable Wind from SSE

Today
High -- | Low -- °F
--% Chance of Precip.
Yesterday
High -- | Low -- °F
Precip. -- in
7:36 AM 5:57 PM
Waxing Crescent, 6% visible
Pressure 29.55 in
Visibility 10.0 miles
Clouds Clear
Dew Point 37 °F
Humidity 53%
Rainfall 0.00 in
Snow Depth Not available.
UV 0 out of 12
Pollen 1.50 out of 12
Air Quality Not available.
Flu Activity No Activity
METAR KMLS 260653Z AUTO 15007KT 10SM CLR 12/03 A2958 RMK AO2 SLP006 T01220028 402220022

More Conditions Fewer Conditions

Pressure 29.55 in
Visibility 10.0 miles
Clouds Clear
Dew Point 37 °F
Humidity 53%
Rainfall 0.00 in
Snow Depth Not available.
UV 0 out of 12
Pollen 1.50 out of 12
Air Quality Not available.
Flu Activity No Activity
METAR KMLS 260653Z AUTO 15007KT 10SM CLR 12/03 A2958 RMK AO2 SLP006 T01220028 402220022

More Conditions Fewer Conditions

10-Day Weather Forecast

Almanac

Astronomy

Oct. 26, 2014 Rise Set
Actual Time 7:36 AM MDT 5:57 PM MDT
Civil Twilight 7:05 AM MDT 6:28 PM MDT
Nautical Twilight 6:29 AM MDT 7:03 PM MDT
Astronomical Twilight 5:55 AM MDT 7:38 PM MDT
Moon 10:23 AM MDT 8:04 PM MDT
Length of Visible Light 11h 23m
Length of Day
10h 21m
Tomorrow will be 3m 2s shorter.
Waxing Crescent, 6% of the Moon is Illuminated
Today
Waxing Crescent
Oct 30
First Quarter
Nov 6
Full
Nov 14
Last Quarter
Nov 22
New

Today's Extremes

State Highs State Lows

Community

WunderPhotos

Upload Photos

1,765,117 photos uploaded!

Nearby

Snow Depth

Station Depth Elevation
Crystal Lake 0 in 6050 ft
Burnt Mountain 0 in 5880 ft
Daisy Peak 0 in 7600 ft
Fisher Creek 1 in 9100 ft
South Fork Shields 1 in 8100 ft

Earthquake Activity

City Distance Mag. Time & Date
No recent earthquake activity has been reported nearby.
Minimum magnitude displayed is 2.5.

Coastal Water Temperatures

Place Temperature
No Stations Reporting

Nearby Weather Stations